sensor_id;sensor_type;location;lat;lon;timestamp;pressure;altitude;pressure_sealevel;temperature;humidity
56876;BME280;42622;49.972;8.452;2022-09-09T00:02:18;100157.66;;;15.29;93.41
56876;BME280;42622;49.972;8.452;2022-09-09T00:05:35;100141.28;;;15.14;92.79
56876;BME280;42622;49.972;8.452;2022-09-09T00:08:20;100150.81;;;15.07;94.22
56876;BME280;42622;49.972;8.452;2022-09-09T00:11:01;100151.38;;;15.01;94.01
56876;BME280;42622;49.972;8.452;2022-09-09T00:13:54;100151.22;;;14.93;94.52
56876;BME280;42622;49.972;8.452;2022-09-09T00:16:35;100137.91;;;14.83;94.21
56876;BME280;42622;49.972;8.452;2022-09-09T00:19:56;100136.94;;;14.74;94.32
56876;BME280;42622;49.972;8.452;2022-09-09T00:22:30;100145.72;;;14.65;94.91
56876;BME280;42622;49.972;8.452;2022-09-09T00:25:26;100151.16;;;14.54;95.73
56876;BME280;42622;49.972;8.452;2022-09-09T00:28:00;100141.28;;;14.45;96.03
56876;BME280;42622;49.972;8.452;2022-09-09T00:30:34;100141.88;;;14.39;95.58
56876;BME280;42622;49.972;8.452;2022-09-09T00:33:11;100145.75;;;14.34;96.30
56876;BME280;42622;49.972;8.452;2022-09-09T00:36:01;100144.59;;;14.27;96.22
56876;BME280;42622;49.972;8.452;2022-09-09T00:38:42;100136.47;;;14.19;96.81
56876;BME280;42622;49.972;8.452;2022-09-09T00:44:37;100137.81;;;14.04;97.89
56876;BME280;42622;49.972;8.452;2022-09-09T00:47:46;100146.88;;;14.01;97.66
56876;BME280;42622;49.972;8.452;2022-09-09T00:53:31;100142.31;;;14.13;98.48
56876;BME280;42622;49.972;8.452;2022-09-09T00:56:21;100145.16;;;14.21;98.65
56876;BME280;42622;49.972;8.452;2022-09-09T01:02:22;100151.47;;;14.30;99.37
56876;BME280;42622;49.972;8.452;2022-09-09T01:04:53;100146.72;;;14.33;99.84
56876;BME280;42622;49.972;8.452;2022-09-09T01:07:20;100141.56;;;14.32;99.34
56876;BME280;42622;49.972;8.452;2022-09-09T01:10:06;100142.41;;;14.32;100.00
56876;BME280;42622;49.972;8.452;2022-09-09T01:12:43;100135.66;;;14.28;99.45
56876;BME280;42622;49.972;8.452;2022-09-09T01:15:29;100139.56;;;14.24;99.80
56876;BME280;42622;49.972;8.452;2022-09-09T01:18:17;100138.13;;;14.20;100.00
56876;BME280;42622;49.972;8.452;2022-09-09T01:21:17;100133.13;;;14.17;99.95
56876;BME280;42622;49.972;8.452;2022-09-09T01:26:41;100140.16;;;13.97;100.00
56876;BME280;42622;49.972;8.452;2022-09-09T01:29:17;100138.84;;;13.92;100.00
56876;BME280;42622;49.972;8.452;2022-09-09T01:32:35;100147.50;;;13.84;100.00
56876;BME280;42622;49.972;8.452;2022-09-09T01:35:04;100146.47;;;13.75;100.00
56876;BME280;42622;49.972;8.452;2022-09-09T01:37:35;100148.94;;;13.67;100.00
56876;BME280;42622;49.972;8.452;2022-09-09T01:40:00;100134.78;;;13.57;100.00
56876;BME280;42622;49.972;8.452;2022-09-09T01:42:27;100136.25;;;13.50;100.00
56876;BME280;42622;49.972;8.452;2022-09-09T01:44:52;100134.22;;;13.42;100.00
56876;BME280;42622;49.972;8.452;2022-09-09T01:47:20;100145.50;;;13.34;100.00
56876;BME280;42622;49.972;8.452;2022-09-09T01:49:45;100133.59;;;13.29;100.00
56876;BME280;42622;49.972;8.452;2022-09-09T01:52:11;100141.00;;;13.25;100.00
56876;BME280;42622;49.972;8.452;2022-09-09T01:54:37;100135.06;;;13.22;100.00
56876;BME280;42622;49.972;8.452;2022-09-09T01:57:23;100131.81;;;13.18;100.00
56876;BME280;42622;49.972;8.452;2022-09-09T02:00:13;100126.03;;;13.13;100.00
56876;BME280;42622;49.972;8.452;2022-09-09T02:03:22;100130.41;;;13.03;100.00
56876;BME280;42622;49.972;8.452;2022-09-09T02:09:05;100144.31;;;12.95;100.00
56876;BME280;42622;49.972;8.452;2022-09-09T02:11:33;100152.44;;;12.94;100.00
56876;BME280;42622;49.972;8.452;2022-09-09T02:14:20;100149.63;;;12.95;100.00
56876;BME280;42622;49.972;8.452;2022-09-09T02:16:59;100140.19;;;13.02;100.00
56876;BME280;42622;49.972;8.452;2022-09-09T02:19:48;100146.94;;;13.06;100.00
56876;BME280;42622;49.972;8.452;2022-09-09T02:22:23;100142.22;;;13.10;100.00
56876;BME280;42622;49.972;8.452;2022-09-09T02:24:58;100141.72;;;13.16;100.00
56876;BME280;42622;49.972;8.452;2022-09-09T02:27:27;100136.16;;;13.19;100.00
56876;BME280;42622;49.972;8.452;2022-09-09T02:29:57;100148.34;;;13.22;100.00
56876;BME280;42622;49.972;8.452;2022-09-09T02:32:32;100150.47;;;13.28;100.00
56876;BME280;42622;49.972;8.452;2022-09-09T02:35:12;100157.22;;;13.32;100.00
56876;BME280;42622;49.972;8.452;2022-09-09T02:37:42;100157.53;;;13.38;100.00
56876;BME280;42622;49.972;8.452;2022-09-09T02:40:14;100157.53;;;13.38;100.00
56876;BME280;42622;49.972;8.452;2022-09-09T02:42:47;100160.09;;;13.40;100.00
56876;BME280;42622;49.972;8.452;2022-09-09T02:45:20;100154.63;;;13.42;100.00
56876;BME280;42622;49.972;8.452;2022-09-09T02:50:35;100158.22;;;13.52;100.00
56876;BME280;42622;49.972;8.452;2022-09-09T02:53:33;100151.91;;;13.53;100.00
56876;BME280;42622;49.972;8.452;2022-09-09T02:56:23;100147.59;;;13.52;100.00
56876;BME280;42622;49.972;8.452;2022-09-09T02:58:54;100153.88;;;13.51;100.00
56876;BME280;42622;49.972;8.452;2022-09-09T03:01:21;100159.56;;;13.46;100.00
56876;BME280;42622;49.972;8.452;2022-09-09T03:03:47;100155.63;;;13.41;100.00
56876;BME280;42622;49.972;8.452;2022-09-09T03:06:13;100153.94;;;13.39;100.00
56876;BME280;42622;49.972;8.452;2022-09-09T03:08:40;100143.56;;;13.36;100.00
56876;BME280;42622;49.972;8.452;2022-09-09T03:11:07;100145.50;;;13.34;100.00
56876;BME280;42622;49.972;8.452;2022-09-09T03:13:39;100136.84;;;13.32;100.00
56876;BME280;42622;49.972;8.452;2022-09-09T03:16:05;100133.72;;;13.27;100.00
56876;BME280;42622;49.972;8.452;2022-09-09T03:18:31;100137.56;;;13.23;100.00
56876;BME280;42622;49.972;8.452;2022-09-09T03:20:57;100146.75;;;13.19;100.00
56876;BME280;42622;49.972;8.452;2022-09-09T03:23:26;100149.91;;;13.13;100.00
56876;BME280;42622;49.972;8.452;2022-09-09T03:25:52;100149.22;;;13.11;100.00
56876;BME280;42622;49.972;8.452;2022-09-09T03:28:19;100152.81;;;13.10;100.00
56876;BME280;42622;49.972;8.452;2022-09-09T03:30:46;100156.06;;;13.13;100.00
56876;BME280;42622;49.972;8.452;2022-09-09T03:33:11;100159.31;;;13.17;100.00
56876;BME280;42622;49.972;8.452;2022-09-09T03:35:37;100160.50;;;13.24;100.00
56876;BME280;42622;49.972;8.452;2022-09-09T03:38:04;100159.88;;;13.32;100.00
56876;BME280;42622;49.972;8.452;2022-09-09T03:40:30;100154.78;;;13.40;100.00
56876;BME280;42622;49.972;8.452;2022-09-09T03:42:56;100141.69;;;13.48;100.00
56876;BME280;42622;49.972;8.452;2022-09-09T03:45:22;100142.34;;;13.61;100.00
56876;BME280;42622;49.972;8.452;2022-09-09T03:47:47;100145.31;;;13.68;100.00
56876;BME280;42622;49.972;8.452;2022-09-09T03:50:14;100145.91;;;13.72;100.00
56876;BME280;42622;49.972;8.452;2022-09-09T03:52:41;100145.50;;;13.76;100.00
56876;BME280;42622;49.972;8.452;2022-09-09T03:55:08;100150.56;;;13.79;100.00
56876;BME280;42622;49.972;8.452;2022-09-09T03:57:35;100154.19;;;13.78;100.00
56876;BME280;42622;49.972;8.452;2022-09-09T04:00:07;100142.13;;;13.74;100.00
56876;BME280;42622;49.972;8.452;2022-09-09T04:02:33;100146.00;;;13.70;100.00
56876;BME280;42622;49.972;8.452;2022-09-09T04:04:59;100152.72;;;13.65;100.00
56876;BME280;42622;49.972;8.452;2022-09-09T04:07:26;100145.41;;;13.57;100.00
56876;BME280;42622;49.972;8.452;2022-09-09T04:09:53;100147.84;;;13.49;100.00
56876;BME280;42622;49.972;8.452;2022-09-09T04:12:20;100132.72;;;13.39;100.00
56876;BME280;42622;49.972;8.452;2022-09-09T04:14:46;100143.56;;;13.36;100.00
56876;BME280;42622;49.972;8.452;2022-09-09T04:17:12;100145.50;;;13.34;100.00
56876;BME280;42622;49.972;8.452;2022-09-09T04:19:37;100129.84;;;13.31;100.00
56876;BME280;42622;49.972;8.452;2022-09-09T04:22:03;100132.38;;;13.33;100.00
56876;BME280;42622;49.972;8.452;2022-09-09T04:24:29;100130.41;;;13.35;100.00
56876;BME280;42622;49.972;8.452;2022-09-09T04:26:55;100131.84;;;13.39;100.00
56876;BME280;42622;49.972;8.452;2022-09-09T04:29:21;100125.44;;;13.42;100.00
56876;BME280;42622;49.972;8.452;2022-09-09T04:31:46;100127.09;;;13.43;100.00
56876;BME280;42622;49.972;8.452;2022-09-09T04:34:12;100126.84;;;13.46;100.00
56876;BME280;42622;49.972;8.452;2022-09-09T04:36:38;100131.22;;;13.47;100.00
56876;BME280;42622;49.972;8.452;2022-09-09T04:39:06;100136.25;;;13.50;100.00
56876;BME280;42622;49.972;8.452;2022-09-09T04:41:32;100131.41;;;13.55;100.00
56876;BME280;42622;49.972;8.452;2022-09-09T04:43:58;100133.78;;;13.58;100.00
56876;BME280;42622;49.972;8.452;2022-09-09T04:46:25;100138.38;;;13.56;100.00
56876;BME280;42622;49.972;8.452;2022-09-09T04:48:50;100133.31;;;13.53;100.00
56876;BME280;42622;49.972;8.452;2022-09-09T04:51:17;100137.81;;;13.52;100.00
56876;BME280;42622;49.972;8.452;2022-09-09T04:53:44;100145.06;;;13.50;100.00
56876;BME280;42622;49.972;8.452;2022-09-09T04:56:15;100140.97;;;13.46;100.00
56876;BME280;42622;49.972;8.452;2022-09-09T04:58:42;100145.69;;;13.43;100.00
56876;BME280;42622;49.972;8.452;2022-09-09T05:01:22;100155.63;;;13.41;100.00
56876;BME280;42622;49.972;8.452;2022-09-09T05:03:50;100161.78;;;13.41;100.00
56876;BME280;42622;49.972;8.452;2022-09-09T05:06:20;100170.19;;;13.46;100.00
56876;BME280;42622;49.972;8.452;2022-09-09T05:08:47;100177.38;;;13.55;100.00
56876;BME280;42622;49.972;8.452;2022-09-09T05:11:26;100168.09;;;13.71;100.00
56876;BME280;42622;49.972;8.452;2022-09-09T05:13:55;100169.16;;;13.79;100.00
56876;BME280;42622;49.972;8.452;2022-09-09T05:16:23;100178.13;;;13.88;100.00
56876;BME280;42622;49.972;8.452;2022-09-09T05:18:49;100186.44;;;13.95;100.00
56876;BME280;42622;49.972;8.452;2022-09-09T05:21:19;100175.13;;;14.02;100.00
56876;BME280;42622;49.972;8.452;2022-09-09T05:23:46;100173.78;;;14.08;100.00
56876;BME280;42622;49.972;8.452;2022-09-09T05:26:15;100184.56;;;14.16;100.00
56876;BME280;42622;49.972;8.452;2022-09-09T05:28:41;100175.09;;;14.23;100.00
56876;BME280;42622;49.972;8.452;2022-09-09T05:31:11;100179.88;;;14.29;100.00
56876;BME280;42622;49.972;8.452;2022-09-09T05:33:40;100184.69;;;14.35;100.00
56876;BME280;42622;49.972;8.452;2022-09-09T05:36:12;100188.31;;;14.44;100.00
56876;BME280;42622;49.972;8.452;2022-09-09T05:38:40;100183.84;;;14.45;100.00
56876;BME280;42622;49.972;8.452;2022-09-09T05:41:07;100183.00;;;14.44;100.00
56876;BME280;42622;49.972;8.452;2022-09-09T05:43:37;100189.75;;;14.48;100.00
56876;BME280;42622;49.972;8.452;2022-09-09T05:46:08;100189.13;;;14.56;100.00
56876;BME280;42622;49.972;8.452;2022-09-09T05:48:42;100192.91;;;14.63;100.00
56876;BME280;42622;49.972;8.452;2022-09-09T05:51:15;100195.16;;;14.68;100.00
56876;BME280;42622;49.972;8.452;2022-09-09T05:53:47;100198.66;;;14.68;100.00
56876;BME280;42622;49.972;8.452;2022-09-09T05:56:17;100195.28;;;14.66;100.00
56876;BME280;42622;49.972;8.452;2022-09-09T05:58:50;100197.38;;;14.63;100.00
56876;BME280;42622;49.972;8.452;2022-09-09T06:01:28;100200.91;;;14.63;100.00
56876;BME280;42622;49.972;8.452;2022-09-09T06:03:56;100204.97;;;14.67;100.00
56876;BME280;42622;49.972;8.452;2022-09-09T06:06:26;100199.09;;;14.73;100.00
56876;BME280;42622;49.972;8.452;2022-09-09T06:08:57;100209.38;;;14.88;100.00
56876;BME280;42622;49.972;8.452;2022-09-09T06:11:31;100201.66;;;15.04;100.00
56876;BME280;42622;49.972;8.452;2022-09-09T06:13:58;100212.34;;;15.14;100.00
56876;BME280;42622;49.972;8.452;2022-09-09T06:16:28;100207.31;;;15.20;100.00
56876;BME280;42622;49.972;8.452;2022-09-09T06:18:56;100210.38;;;15.25;100.00
56876;BME280;42622;49.972;8.452;2022-09-09T06:21:30;100208.16;;;15.30;100.00
56876;BME280;42622;49.972;8.452;2022-09-09T06:23:58;100206.72;;;15.36;100.00
56876;BME280;42622;49.972;8.452;2022-09-09T06:26:30;100214.03;;;15.44;100.00
56876;BME280;42622;49.972;8.452;2022-09-09T06:28:59;100213.63;;;15.48;100.00
56876;BME280;42622;49.972;8.452;2022-09-09T06:31:31;100209.53;;;15.54;100.00
56876;BME280;42622;49.972;8.452;2022-09-09T06:34:00;100209.81;;;15.61;100.00
56876;BME280;42622;49.972;8.452;2022-09-09T06:36:32;100211.50;;;15.71;100.00
56876;BME280;42622;49.972;8.452;2022-09-09T06:39:00;100219.06;;;15.86;100.00
56876;BME280;42622;49.972;8.452;2022-09-09T06:41:32;100212.00;;;16.04;100.00
56876;BME280;42622;49.972;8.452;2022-09-09T06:43:58;100205.78;;;16.23;100.00
56876;BME280;42622;49.972;8.452;2022-09-09T06:46:27;100205.38;;;16.55;100.00
56876;BME280;42622;49.972;8.452;2022-09-09T06:48:56;100201.78;;;16.74;100.00
56876;BME280;42622;49.972;8.452;2022-09-09T06:51:30;100202.63;;;16.75;100.00
56876;BME280;42622;49.972;8.452;2022-09-09T06:54:00;100204.50;;;16.64;100.00
56876;BME280;42622;49.972;8.452;2022-09-09T06:56:34;100198.34;;;16.54;100.00
56876;BME280;42622;49.972;8.452;2022-09-09T06:59:03;100209.91;;;16.45;100.00
56876;BME280;42622;49.972;8.452;2022-09-09T07:01:39;100219.09;;;16.33;100.00
56876;BME280;42622;49.972;8.452;2022-09-09T07:04:07;100216.44;;;16.23;100.00
56876;BME280;42622;49.972;8.452;2022-09-09T07:06:38;100218.69;;;16.18;100.00
56876;BME280;42622;49.972;8.452;2022-09-09T07:09:10;100218.03;;;16.16;100.00
56876;BME280;42622;49.972;8.452;2022-09-09T07:11:39;100209.19;;;16.15;100.00
56876;BME280;42622;49.972;8.452;2022-09-09T07:14:07;100206.34;;;16.17;100.00
56876;BME280;42622;49.972;8.452;2022-09-09T07:16:34;100217.28;;;16.23;100.00
56876;BME280;42622;49.972;8.452;2022-09-09T07:19:03;100207.31;;;16.25;100.00
56876;BME280;42622;49.972;8.452;2022-09-09T07:21:32;100219.78;;;16.35;100.00
56876;BME280;42622;49.972;8.452;2022-09-09T07:24:00;100201.50;;;16.40;100.00
56876;BME280;42622;49.972;8.452;2022-09-09T07:26:29;100215.41;;;16.43;99.61
56876;BME280;42622;49.972;8.452;2022-09-09T07:28:56;100211.00;;;16.52;100.00
56876;BME280;42622;49.972;8.452;2022-09-09T07:31:30;100213.75;;;16.60;99.78
56876;BME280;42622;49.972;8.452;2022-09-09T07:33:58;100210.78;;;16.63;98.44
56876;BME280;42622;49.972;8.452;2022-09-09T07:36:39;100221.88;;;16.68;98.64
56876;BME280;42622;49.972;8.452;2022-09-09T07:39:09;100230.56;;;16.70;98.21
56876;BME280;42622;49.972;8.452;2022-09-09T07:41:48;100233.69;;;16.76;98.14
56876;BME280;42622;49.972;8.452;2022-09-09T07:44:21;100231.84;;;16.76;97.67
56876;BME280;42622;49.972;8.452;2022-09-09T07:46:50;100228.03;;;16.79;98.36
56876;BME280;42622;49.972;8.452;2022-09-09T07:49:16;100229.41;;;16.83;97.81
56876;BME280;42622;49.972;8.452;2022-09-09T07:51:46;100233.19;;;16.90;97.30
56876;BME280;42622;49.972;8.452;2022-09-09T07:54:17;100236.63;;;17.00;96.52
56876;BME280;42622;49.972;8.452;2022-09-09T07:56:50;100237.25;;;17.30;97.28
56876;BME280;42622;49.972;8.452;2022-09-09T07:59:17;100243.31;;;17.50;95.77
56876;BME280;42622;49.972;8.452;2022-09-09T08:01:48;100246.81;;;17.68;94.61
56876;BME280;42622;49.972;8.452;2022-09-09T08:04:21;100234.56;;;17.83;92.95
56876;BME280;42622;49.972;8.452;2022-09-09T08:06:53;100248.00;;;18.09;92.74
56876;BME280;42622;49.972;8.452;2022-09-09T08:09:24;100244.16;;;18.38;90.98
56876;BME280;42622;49.972;8.452;2022-09-09T08:11:53;100240.34;;;18.49;89.95
56876;BME280;42622;49.972;8.452;2022-09-09T08:14:19;100238.06;;;18.96;90.35
56876;BME280;42622;49.972;8.452;2022-09-09T08:16:48;100250.22;;;19.41;87.16
56876;BME280;42622;49.972;8.452;2022-09-09T08:19:16;100240.84;;;19.62;86.44
56876;BME280;42622;49.972;8.452;2022-09-09T08:21:44;100244.41;;;19.70;84.69
56876;BME280;42622;49.972;8.452;2022-09-09T08:24:12;100250.56;;;19.54;83.57
56876;BME280;42622;49.972;8.452;2022-09-09T08:26:45;100252.22;;;19.31;82.56
56876;BME280;42622;49.972;8.452;2022-09-09T08:29:14;100259.53;;;19.13;81.39
56876;BME280;42622;49.972;8.452;2022-09-09T08:31:50;100257.31;;;18.92;81.26
56876;BME280;42622;49.972;8.452;2022-09-09T08:34:21;100261.38;;;18.70;80.87
56876;BME280;42622;49.972;8.452;2022-09-09T08:36:50;100268.69;;;18.59;80.36
56876;BME280;42622;49.972;8.452;2022-09-09T08:39:20;100270.00;;;18.55;80.55
56876;BME280;42622;49.972;8.452;2022-09-09T08:45:05;100265.00;;;18.60;79.80
56876;BME280;42622;49.972;8.452;2022-09-09T08:47:58;100255.97;;;18.61;78.59
56876;BME280;42622;49.972;8.452;2022-09-09T08:50:30;100257.44;;;18.56;78.18
56876;BME280;42622;49.972;8.452;2022-09-09T08:53:29;100257.25;;;18.49;77.69
56876;BME280;42622;49.972;8.452;2022-09-09T08:56:22;100250.84;;;18.42;77.65
56876;BME280;42622;49.972;8.452;2022-09-09T08:58:55;100255.47;;;18.32;77.41
56876;BME280;42622;49.972;8.452;2022-09-09T09:01:45;100251.38;;;18.20;77.79
56876;BME280;42622;49.972;8.452;2022-09-09T09:05:18;100255.75;;;17.77;78.96
56876;BME280;42622;49.972;8.452;2022-09-09T09:08:25;100245.81;;;17.15;81.29
56876;BME280;42622;49.972;8.452;2022-09-09T09:10:58;100241.69;;;16.76;83.63
56876;BME280;42622;49.972;8.452;2022-09-09T09:16:46;100254.88;;;16.40;87.33
56876;BME280;42622;49.972;8.452;2022-09-09T09:19:16;100240.72;;;16.30;88.08
56876;BME280;42622;49.972;8.452;2022-09-09T09:24:53;100247.34;;;16.25;90.10
56876;BME280;42622;49.972;8.452;2022-09-09T09:27:40;100239.47;;;16.14;90.65
56876;BME280;42622;49.972;8.452;2022-09-09T09:30:24;100235.31;;;16.12;92.46
56876;BME280;42622;49.972;8.452;2022-09-09T09:36:00;100238.81;;;16.12;95.17
56876;BME280;42622;49.972;8.452;2022-09-09T09:38:28;100236.13;;;16.12;95.69
56876;BME280;42622;49.972;8.452;2022-09-09T09:40:58;100233.03;;;16.07;95.58
56876;BME280;42622;49.972;8.452;2022-09-09T09:43:34;100240.66;;;16.02;96.57
56876;BME280;42622;49.972;8.452;2022-09-09T09:46:04;100247.25;;;15.98;97.14
56876;BME280;42622;49.972;8.452;2022-09-09T09:48:42;100235.03;;;15.95;98.13
56876;BME280;42622;49.972;8.452;2022-09-09T09:51:14;100243.97;;;16.23;100.00
56876;BME280;42622;49.972;8.452;2022-09-09T09:53:45;100235.03;;;16.42;98.57
56876;BME280;42622;49.972;8.452;2022-09-09T09:56:14;100227.09;;;16.60;99.17
56876;BME280;42622;49.972;8.452;2022-09-09T10:01:31;100220.97;;;16.87;100.00
56876;BME280;42622;49.972;8.452;2022-09-09T10:04:18;100228.88;;;17.25;100.00
56876;BME280;42622;49.972;8.452;2022-09-09T10:06:47;100227.34;;;17.40;98.63
56876;BME280;42622;49.972;8.452;2022-09-09T10:09:24;100225.94;;;17.89;97.30
56876;BME280;42622;49.972;8.452;2022-09-09T10:12:14;100220.69;;;18.32;96.28
56876;BME280;42622;49.972;8.452;2022-09-09T10:15:30;100219.28;;;18.80;94.26
56876;BME280;42622;49.972;8.452;2022-09-09T10:18:22;100215.50;;;19.31;92.26
56876;BME280;42622;49.972;8.452;2022-09-09T10:21:18;100212.50;;;19.43;90.17
56876;BME280;42622;49.972;8.452;2022-09-09T10:24:13;100203.75;;;19.08;89.15
56876;BME280;42622;49.972;8.452;2022-09-09T10:31:06;100215.75;;;18.19;90.67
56876;BME280;42622;49.972;8.452;2022-09-09T10:36:47;100214.03;;;17.84;92.64
56876;BME280;42622;49.972;8.452;2022-09-09T10:39:39;100211.81;;;17.79;93.40
56876;BME280;42622;49.972;8.452;2022-09-09T10:42:19;100211.03;;;17.87;92.84
56876;BME280;42622;49.972;8.452;2022-09-09T10:45:16;100209.84;;;18.07;92.17
56876;BME280;42622;49.972;8.452;2022-09-09T10:48:06;100213.59;;;18.23;91.07
56876;BME280;42622;49.972;8.452;2022-09-09T10:51:17;100207.03;;;18.43;90.71
56876;BME280;42622;49.972;8.452;2022-09-09T10:57:15;100202.47;;;18.70;89.79
56876;BME280;42622;49.972;8.452;2022-09-09T11:00:21;100203.16;;;18.72;86.62
56876;BME280;42622;49.972;8.452;2022-09-09T11:03:00;100204.50;;;18.76;87.06
56876;BME280;42622;49.972;8.452;2022-09-09T11:08:21;100208.06;;;18.84;85.35
56876;BME280;42622;49.972;8.452;2022-09-09T11:11:13;100201.19;;;18.90;84.47
56876;BME280;42622;49.972;8.452;2022-09-09T11:16:39;100203.41;;;19.11;81.83
56876;BME280;42622;49.972;8.452;2022-09-09T11:19:34;100199.25;;;19.57;80.52
56876;BME280;42622;49.972;8.452;2022-09-09T11:23:00;100208.16;;;20.63;77.48
56876;BME280;42622;49.972;8.452;2022-09-09T11:25:59;100203.72;;;21.32;74.81
56876;BME280;42622;49.972;8.452;2022-09-09T11:29:18;100190.91;;;21.42;71.45
56876;BME280;42622;49.972;8.452;2022-09-09T11:35:45;100198.38;;;20.22;67.61
56876;BME280;42622;49.972;8.452;2022-09-09T11:38:47;100209.53;;;19.87;69.57
56876;BME280;42622;49.972;8.452;2022-09-09T11:41:20;100200.09;;;19.99;67.65
56876;BME280;42622;49.972;8.452;2022-09-09T11:43:53;100205.41;;;20.23;67.20
56876;BME280;42622;49.972;8.452;2022-09-09T11:46:31;100204.41;;;20.33;65.70
56876;BME280;42622;49.972;8.452;2022-09-09T11:49:04;100204.75;;;20.13;65.43
56876;BME280;42622;49.972;8.452;2022-09-09T11:51:34;100210.34;;;19.95;66.72
56876;BME280;42622;49.972;8.452;2022-09-09T11:54:04;100203.66;;;19.75;66.72
56876;BME280;42622;49.972;8.452;2022-09-09T11:56:55;100205.81;;;19.55;67.65
56876;BME280;42622;49.972;8.452;2022-09-09T11:59:30;100201.44;;;19.46;68.30
56876;BME280;42622;49.972;8.452;2022-09-09T12:02:18;100199.59;;;19.46;68.97
56876;BME280;42622;49.972;8.452;2022-09-09T12:05:12;100200.63;;;19.45;69.36
56876;BME280;42622;49.972;8.452;2022-09-09T12:07:58;100197.25;;;19.43;69.46
56876;BME280;42622;49.972;8.452;2022-09-09T12:10:38;100196.75;;;19.40;69.39
56876;BME280;42622;49.972;8.452;2022-09-09T12:13:20;100188.88;;;19.38;69.07
56876;BME280;42622;49.972;8.452;2022-09-09T12:15:55;100189.22;;;19.35;68.92
56876;BME280;42622;49.972;8.452;2022-09-09T12:18:37;100190.88;;;19.28;69.31
56876;BME280;42622;49.972;8.452;2022-09-09T12:21:17;100192.06;;;19.17;69.22
56876;BME280;42622;49.972;8.452;2022-09-09T12:24:11;100210.13;;;19.07;70.26
56876;BME280;42622;49.972;8.452;2022-09-09T12:27:24;100215.78;;;18.53;72.07
56876;BME280;42622;49.972;8.452;2022-09-09T12:30:14;100217.44;;;17.94;73.64
56876;BME280;42622;49.972;8.452;2022-09-09T12:32:41;100210.22;;;17.68;74.88
56876;BME280;42622;49.972;8.452;2022-09-09T12:35:21;100210.16;;;17.60;75.65
56876;BME280;42622;49.972;8.452;2022-09-09T12:38:01;100209.75;;;17.55;76.73
56876;BME280;42622;49.972;8.452;2022-09-09T12:40:33;100199.50;;;17.68;76.75
56876;BME280;42622;49.972;8.452;2022-09-09T12:43:20;100199.72;;;17.75;76.72
56876;BME280;42622;49.972;8.452;2022-09-09T12:45:52;100209.47;;;17.76;77.26
56876;BME280;42622;49.972;8.452;2022-09-09T12:48:40;100211.03;;;17.69;76.28
56876;BME280;42622;49.972;8.452;2022-09-09T12:51:23;100215.75;;;17.49;76.28
56876;BME280;42622;49.972;8.452;2022-09-09T12:53:54;100225.34;;;17.24;76.24
56876;BME280;42622;49.972;8.452;2022-09-09T12:56:32;100224.25;;;16.99;76.90
56876;BME280;42622;49.972;8.452;2022-09-09T12:58:59;100219.72;;;16.82;77.20
56876;BME280;42622;49.972;8.452;2022-09-09T13:01:33;100216.44;;;16.60;77.80
56876;BME280;42622;49.972;8.452;2022-09-09T13:04:00;100211.88;;;16.43;79.00
56876;BME280;42622;49.972;8.452;2022-09-09T13:06:31;100204.75;;;16.34;79.55
56876;BME280;42622;49.972;8.452;2022-09-09T13:09:02;100198.88;;;16.30;80.44
56876;BME280;42622;49.972;8.452;2022-09-09T13:11:31;100208.44;;;16.33;80.61
56876;BME280;42622;49.972;8.452;2022-09-09T13:14:04;100213.03;;;16.40;80.68
56876;BME280;42622;49.972;8.452;2022-09-09T13:16:35;100204.00;;;16.51;81.34
56876;BME280;42622;49.972;8.452;2022-09-09T13:19:14;100205.56;;;16.71;81.09
56876;BME280;42622;49.972;8.452;2022-09-09T13:21:43;100200.91;;;17.01;80.84
56876;BME280;42622;49.972;8.452;2022-09-09T13:24:31;100200.78;;;17.56;80.07
56876;BME280;42622;49.972;8.452;2022-09-09T13:27:26;100196.91;;;18.29;78.48
56876;BME280;42622;49.972;8.452;2022-09-09T13:29:56;100188.16;;;19.03;76.60
56876;BME280;42622;49.972;8.452;2022-09-09T13:32:24;100182.88;;;19.69;75.60
56876;BME280;42622;49.972;8.452;2022-09-09T13:35:01;100184.41;;;20.35;73.63
56876;BME280;42622;49.972;8.452;2022-09-09T13:37:37;100182.72;;;20.82;70.53
56876;BME280;42622;49.972;8.452;2022-09-09T13:40:18;100187.47;;;21.03;68.79
56876;BME280;42622;49.972;8.452;2022-09-09T13:42:50;100190.06;;;20.88;66.87
56876;BME280;42622;49.972;8.452;2022-09-09T13:45:24;100193.69;;;20.72;66.06
56876;BME280;42622;49.972;8.452;2022-09-09T13:47:53;100198.69;;;20.36;66.13
56876;BME280;42622;49.972;8.452;2022-09-09T13:50:28;100204.66;;;19.90;66.38
56876;BME280;42622;49.972;8.452;2022-09-09T13:52:58;100196.59;;;19.49;66.61
56876;BME280;42622;49.972;8.452;2022-09-09T13:55:28;100192.06;;;19.17;67.15
56876;BME280;42622;49.972;8.452;2022-09-09T13:57:56;100200.88;;;18.93;67.71
56876;BME280;42622;49.972;8.452;2022-09-09T14:00:24;100203.34;;;18.78;67.98
56876;BME280;42622;49.972;8.452;2022-09-09T14:02:51;100206.94;;;18.69;68.53
56876;BME280;42622;49.972;8.452;2022-09-09T14:05:19;100206.63;;;18.64;68.74
56876;BME280;42622;49.972;8.452;2022-09-09T14:07:46;100219.50;;;18.69;69.15
56876;BME280;42622;49.972;8.452;2022-09-09T14:10:12;100206.34;;;18.75;68.86
56876;BME280;42622;49.972;8.452;2022-09-09T14:12:38;100205.53;;;18.83;69.87
56876;BME280;42622;49.972;8.452;2022-09-09T14:15:07;100212.91;;;18.89;69.64
56876;BME280;42622;49.972;8.452;2022-09-09T14:17:35;100219.59;;;18.85;69.15
56876;BME280;42622;49.972;8.452;2022-09-09T14:20:05;100220.25;;;18.79;69.41
56876;BME280;42622;49.972;8.452;2022-09-09T14:22:37;100218.66;;;18.68;69.54